Time,TemperatureF,DewpointF,PressureIn,WindDirection,WindDirectionDegrees,WindSpeedMPH,WindSpeedGustMPH,Humidity,HourlyPrecipIn,Conditions,Clouds,dailyrainin,SoftwareType,DateUTC
2013-09-25 07:07:00,50.9,46.7,29.74,SW,225,0.0,0.0,86,0.00,,,0.00,WUHU216HW,2013-09-25 05:07:00,
2013-09-25 07:08:00,50.9,46.7,29.74,SW,225,0.0,0.0,86,0.00,,,0.00,WUHU216HW,2013-09-25 05:08:00,
2013-09-25 07:13:00,50.9,46.7,29.75,WSW,248,0.0,0.0,86,0.00,,,0.00,WUHU216HW,2013-09-25 05:13:00,
2013-09-25 07:18:00,50.9,46.7,29.75,SSE,158,0.0,0.0,86,0.00,,,0.00,WUHU216HW,2013-09-25 05:18:00,
2013-09-25 07:23:00,50.7,46.9,29.75,SSE,158,0.0,0.0,87,0.00,,,0.00,WUHU216HW,2013-09-25 05:23:00,
2013-09-25 07:28:00,50.5,46.7,29.76,North,0,0.0,0.0,87,0.00,,,0.00,WUHU216HW,2013-09-25 05:28:00,
2013-09-25 07:33:00,50.5,46.7,29.76,NNW,338,0.0,0.0,87,0.00,,,0.00,WUHU216HW,2013-09-25 05:33:00,
2013-09-25 07:38:00,50.5,46.7,29.76,North,0,0.0,0.0,87,0.00,,,0.00,WUHU216HW,2013-09-25 05:38:00,
2013-09-25 07:43:00,50.7,46.9,29.76,NNE,23,0.0,0.0,87,0.00,,,0.00,WUHU216HW,2013-09-25 05:43:00,
2013-09-25 07:48:00,50.9,47.4,29.76,NW,315,0.0,0.0,88,0.00,,,0.00,WUHU216HW,2013-09-25 05:48:00,
2013-09-25 07:53:00,51.0,47.5,29.77,North,0,0.0,4.9,88,0.00,,,0.00,WUHU216HW,2013-09-25 05:53:00,
2013-09-25 07:58:00,51.6,48.1,29.77,ENE,68,4.2,5.1,88,0.00,,,0.00,WUHU216HW,2013-09-25 05:58:00,
2013-09-25 08:03:00,52.1,48.6,29.78,ENE,68,0.0,5.3,88,0.00,,,0.00,WUHU216HW,2013-09-25 06:03:00,
2013-09-25 08:08:00,52.1,48.6,29.78,ESE,113,0.0,5.3,88,0.00,,,0.00,WUHU216HW,2013-09-25 06:08:00,
2013-09-25 08:13:00,52.1,48.6,29.78,North,0,0.0,0.0,88,0.00,,,0.00,WUHU216HW,2013-09-25 06:13:00,
2013-09-25 08:18:00,52.5,49.0,29.78,North,0,0.0,0.0,88,0.00,,,0.00,WUHU216HW,2013-09-25 06:18:00,
2013-09-25 08:23:00,52.8,49.3,29.78,ENE,68,0.0,0.0,88,0.00,,,0.00,WUHU216HW,2013-09-25 06:23:00,
2013-09-25 08:27:00,53.4,49.6,29.78,ESE,113,0.0,0.0,87,0.00,,,0.00,WUHU216HW,2013-09-25 06:27:00,
2013-09-25 08:32:00,54.1,50.3,29.78,North,0,0.0,0.0,87,0.00,,,0.00,WUHU216HW,2013-09-25 06:32:00,
2013-09-25 08:37:00,54.3,50.4,29.78,ENE,68,0.0,0.0,87,0.00,,,0.00,WUHU216HW,2013-09-25 06:37:00,
2013-09-25 08:42:00,54.6,50.8,29.79,SE,135,0.0,2.2,87,0.00,,,0.00,WUHU216HW,2013-09-25 06:42:00,
2013-09-25 08:47:00,55.0,50.8,29.78,SE,135,4.4,4.4,86,0.00,,,0.00,WUHU216HW,2013-09-25 06:47:00,
2013-09-25 08:52:00,55.5,51.4,29.79,East,90,2.4,4.4,86,0.00,,,0.00,WUHU216HW,2013-09-25 06:52:00,
2013-09-25 08:57:00,55.9,51.7,29.79,ESE,113,0.0,2.9,86,0.00,,,0.00,WUHU216HW,2013-09-25 06:57:00,
2013-09-25 09:03:00,55.9,51.4,29.80,ENE,68,1.3,2.9,85,0.00,,,0.00,WUHU216HW,2013-09-25 07:03:00,
2013-09-25 09:07:00,56.6,51.9,29.79,South,180,0.0,4.4,85,0.00,,,0.00,WUHU216HW,2013-09-25 07:07:00,
2013-09-25 09:12:00,57.5,52.7,29.79,SE,135,0.0,4.4,84,0.00,,,0.00,WUHU216HW,2013-09-25 07:12:00,
2013-09-25 09:17:00,57.9,52.7,29.79,WNW,293,0.0,2.2,83,0.00,,,0.00,WUHU216HW,2013-09-25 07:17:00,
2013-09-25 09:22:00,58.1,52.9,29.80,ESE,113,4.2,4.2,83,0.00,,,0.00,WUHU216HW,2013-09-25 07:22:00,
2013-09-25 09:27:00,58.8,53.6,29.80,East,90,0.0,4.2,83,0.00,,,0.00,WUHU216HW,2013-09-25 07:27:00,
2013-09-25 09:32:00,58.2,52.4,29.80,South,180,2.9,2.9,81,0.00,,,0.00,WUHU216HW,2013-09-25 07:32:00,
2013-09-25 09:37:00,58.2,52.6,29.80,East,90,0.0,3.3,81,0.00,,,0.00,WUHU216HW,2013-09-25 07:37:00,
2013-09-25 09:43:00,58.8,53.0,29.80,ESE,113,1.1,3.8,81,0.00,,,0.00,WUHU216HW,2013-09-25 07:43:00,
2013-09-25 09:47:00,59.1,53.3,29.80,ESE,113,0.0,3.8,81,0.00,,,0.00,WUHU216HW,2013-09-25 07:47:00,
2013-09-25 09:52:00,59.5,53.4,29.81,South,180,0.0,1.1,80,0.00,,,0.00,WUHU216HW,2013-09-25 07:52:00,
2013-09-25 09:57:00,60.4,54.3,29.81,NNE,23,0.0,3.1,80,0.00,,,0.00,WUHU216HW,2013-09-25 07:57:00,
2013-09-25 10:02:00,61.3,54.8,29.81,SSW,203,2.0,6.9,79,0.00,,,0.00,WUHU216HW,2013-09-25 08:02:00,
2013-09-25 10:07:00,61.7,54.4,29.81,SSE,158,3.3,6.9,77,0.00,,,0.00,WUHU216HW,2013-09-25 08:07:00,
2013-09-25 10:12:00,62.2,54.8,29.81,SE,135,2.0,6.2,77,0.00,,,0.00,WUHU216HW,2013-09-25 08:12:00,
2013-09-25 10:17:00,63.3,55.4,29.80,SSE,158,3.1,5.3,76,0.00,,,0.00,WUHU216HW,2013-09-25 08:17:00,
2013-09-25 10:22:00,64.4,56.1,29.81,SE,135,3.1,3.1,74,0.00,,,0.00,WUHU216HW,2013-09-25 08:22:00,
2013-09-25 10:27:00,65.8,56.9,29.81,ESE,113,2.6,3.1,73,0.00,,,0.00,WUHU216HW,2013-09-25 08:27:00,
2013-09-25 10:32:00,66.0,56.3,29.81,SSE,158,0.0,10.0,71,0.00,,,0.00,WUHU216HW,2013-09-25 08:32:00,
2013-09-25 10:37:00,66.5,56.0,29.81,SE,135,4.6,10.0,69,0.00,,,0.00,WUHU216HW,2013-09-25 08:37:00,
2013-09-25 10:42:00,67.2,56.3,29.82,East,90,2.9,7.6,69,0.00,,,0.00,WUHU216HW,2013-09-25 08:42:00,
2013-09-25 10:47:00,67.2,56.3,29.82,ESE,113,5.8,5.8,68,0.00,,,0.00,WUHU216HW,2013-09-25 08:47:00,
2013-09-25 10:52:00,67.6,56.2,29.81,ENE,68,0.0,5.8,67,0.00,,,0.00,WUHU216HW,2013-09-25 08:52:00,
2013-09-25 10:57:00,66.2,54.8,29.82,ENE,68,3.3,4.0,67,0.00,,,0.00,WUHU216HW,2013-09-25 08:57:00,
2013-09-25 11:02:00,65.1,53.8,29.82,NE,45,1.1,4.0,67,0.00,,,0.00,WUHU216HW,2013-09-25 09:02:00,
2013-09-25 11:07:00,64.9,54.5,29.82,ESE,113,6.7,6.9,69,0.00,,,0.00,WUHU216HW,2013-09-25 09:07:00,
2013-09-25 11:12:00,65.1,54.7,29.82,South,180,6.0,6.9,69,0.00,,,0.00,WUHU216HW,2013-09-25 09:12:00,
2013-09-25 11:17:00,65.3,54.4,29.82,East,90,0.0,6.0,68,0.00,,,0.00,WUHU216HW,2013-09-25 09:17:00,
2013-09-25 11:22:00,65.4,54.6,29.82,North,0,0.0,5.1,69,0.00,,,0.00,WUHU216HW,2013-09-25 09:22:00,
2013-09-25 11:27:00,66.3,55.0,29.82,East,90,3.1,4.9,67,0.00,,,0.00,WUHU216HW,2013-09-25 09:27:00,
2013-09-25 11:32:00,66.0,54.2,29.82,East,90,2.2,4.9,66,0.00,,,0.00,WUHU216HW,2013-09-25 09:32:00,
2013-09-25 11:37:00,65.6,54.3,29.82,SE,135,2.9,3.5,67,0.00,,,0.00,WUHU216HW,2013-09-25 09:37:00,
2013-09-25 11:42:00,66.5,54.9,29.81,ENE,68,4.6,7.1,67,0.00,,,0.00,WUHU216HW,2013-09-25 09:42:00,
2013-09-25 11:47:00,67.2,55.0,29.82,SSE,158,3.3,7.1,65,0.00,,,0.00,WUHU216HW,2013-09-25 09:47:00,
2013-09-25 11:52:00,67.6,54.9,29.82,SSE,158,1.3,6.2,65,0.00,,,0.00,WUHU216HW,2013-09-25 09:52:00,
2013-09-25 11:57:00,67.8,55.5,29.82,SE,135,0.0,8.9,65,0.00,,,0.00,WUHU216HW,2013-09-25 09:57:00,
2013-09-25 12:02:00,68.5,55.8,29.82,SE,135,3.8,8.9,64,0.00,,,0.00,WUHU216HW,2013-09-25 10:02:00,
2013-09-25 12:07:00,68.7,55.5,29.82,ESE,113,4.6,7.3,63,0.00,,,0.00,WUHU216HW,2013-09-25 10:07:00,
2013-09-25 12:12:00,67.4,54.3,29.82,SE,135,0.0,4.6,63,0.00,,,0.00,WUHU216HW,2013-09-25 10:12:00,
2013-09-25 12:17:00,67.6,54.9,29.82,East,90,0.0,5.3,64,0.00,,,0.00,WUHU216HW,2013-09-25 10:17:00,
2013-09-25 12:22:00,68.7,56.0,29.82,ESE,113,1.3,5.3,64,0.00,,,0.00,WUHU216HW,2013-09-25 10:22:00,
2013-09-25 12:27:00,69.8,56.6,29.82,SSE,158,2.9,9.1,63,0.00,,,0.00,WUHU216HW,2013-09-25 10:27:00,
2013-09-25 12:32:00,69.8,56.2,29.82,ENE,68,0.0,9.1,62,0.00,,,0.00,WUHU216HW,2013-09-25 10:32:00,
2013-09-25 12:37:00,69.4,55.8,29.82,SSE,158,0.0,3.5,62,0.00,,,0.00,WUHU216HW,2013-09-25 10:37:00,
2013-09-25 12:42:00,68.7,55.1,29.82,South,180,4.9,4.9,62,0.00,,,0.00,WUHU216HW,2013-09-25 10:42:00,
2013-09-25 12:47:00,68.1,55.4,29.82,ESE,113,3.1,4.9,64,0.00,,,0.00,WUHU216HW,2013-09-25 10:47:00,
2013-09-25 12:52:00,67.2,54.2,29.82,SSE,158,0.0,8.5,63,0.00,,,0.00,WUHU216HW,2013-09-25 10:52:00,
2013-09-25 12:57:00,66.9,54.3,29.82,SE,135,0.0,8.5,64,0.00,,,0.00,WUHU216HW,2013-09-25 10:57:00,
2013-09-25 13:02:00,66.0,53.4,29.81,SE,135,0.0,6.7,64,0.00,,,0.00,WUHU216HW,2013-09-25 11:02:00,
2013-09-25 13:07:00,65.6,53.1,29.82,South,180,4.0,5.5,64,0.00,,,0.00,WUHU216HW,2013-09-25 11:07:00,
2013-09-25 13:12:00,65.1,53.4,29.81,NW,315,0.0,6.0,66,0.00,,,0.00,WUHU216HW,2013-09-25 11:12:00,
2013-09-25 13:17:00,65.3,53.6,29.81,East,90,5.3,6.0,66,0.00,,,0.00,WUHU216HW,2013-09-25 11:17:00,
2013-09-25 13:22:00,65.1,53.4,29.81,North,0,0.0,5.3,66,0.00,,,0.00,WUHU216HW,2013-09-25 11:22:00,
2013-09-25 13:27:00,64.9,53.2,29.81,South,180,3.5,4.2,66,0.00,,,0.00,WUHU216HW,2013-09-25 11:27:00,
2013-09-25 13:32:00,65.3,53.6,29.81,SSE,158,4.0,4.2,66,0.00,,,0.00,WUHU216HW,2013-09-25 11:32:00,
2013-09-25 13:37:00,65.1,53.4,29.81,ESE,113,1.1,4.0,66,0.00,,,0.00,WUHU216HW,2013-09-25 11:37:00,
2013-09-25 13:42:00,65.1,53.4,29.80,North,0,0.0,4.0,66,0.00,,,0.00,WUHU216HW,2013-09-25 11:42:00,
2013-09-25 13:47:00,65.1,53.4,29.80,South,180,0.0,4.0,66,0.00,,,0.00,WUHU216HW,2013-09-25 11:47:00,
2013-09-25 13:52:00,64.9,53.2,29.79,South,180,0.0,4.0,66,0.00,,,0.00,WUHU216HW,2013-09-25 11:52:00,
2013-09-25 13:57:00,64.5,53.0,29.79,SSE,158,0.0,2.6,66,0.00,,,0.00,WUHU216HW,2013-09-25 11:57:00,
2013-09-25 14:02:00,64.5,53.3,29.78,SSE,158,4.4,4.4,67,0.00,,,0.00,WUHU216HW,2013-09-25 12:02:00,
2013-09-25 14:07:00,64.5,53.3,29.79,SSE,158,1.3,4.4,67,0.00,,,0.00,WUHU216HW,2013-09-25 12:07:00,
2013-09-25 14:12:00,64.7,53.5,29.78,ESE,113,1.7,3.5,67,0.00,,,0.00,WUHU216HW,2013-09-25 12:12:00,
2013-09-25 14:17:00,64.9,54.1,29.78,SSE,158,4.0,4.0,68,0.00,,,0.00,WUHU216HW,2013-09-25 12:17:00,
2013-09-25 14:22:00,65.1,54.2,29.78,ENE,68,0.0,4.0,68,0.00,,,0.00,WUHU216HW,2013-09-25 12:22:00,
2013-09-25 14:27:00,65.3,54.0,29.78,SSW,203,0.0,4.0,67,0.00,,,0.00,WUHU216HW,2013-09-25 12:27:00,
2013-09-25 14:32:00,65.4,54.6,29.78,East,90,3.8,3.8,68,0.00,,,0.00,WUHU216HW,2013-09-25 12:32:00,
2013-09-25 14:37:00,65.6,54.7,29.78,SE,135,1.7,3.8,68,0.00,,,0.00,WUHU216HW,2013-09-25 12:37:00,
2013-09-25 14:42:00,65.6,55.2,29.78,ESE,113,4.2,4.2,69,0.00,,,0.00,WUHU216HW,2013-09-25 12:42:00,
2013-09-25 14:47:00,65.6,54.7,29.78,ESE,113,0.0,4.2,68,0.00,,,0.00,WUHU216HW,2013-09-25 12:47:00,
2013-09-25 14:52:00,65.8,54.9,29.78,ESE,113,5.3,5.3,68,0.00,,,0.00,WUHU216HW,2013-09-25 12:52:00,
2013-09-25 14:57:00,65.8,54.9,29.77,SE,135,3.5,5.3,68,0.00,,,0.00,WUHU216HW,2013-09-25 12:57:00,
2013-09-25 15:02:00,65.3,54.6,29.78,ESE,113,1.5,4.0,68,0.00,,,0.00,WUHU216HW,2013-09-25 13:02:00,
2013-09-25 15:07:00,65.1,54.2,29.78,ENE,68,0.0,4.6,68,0.00,,,0.00,WUHU216HW,2013-09-25 13:07:00,
2013-09-25 15:12:00,64.9,54.5,29.78,NE,45,0.0,4.6,69,0.00,,,0.00,WUHU216HW,2013-09-25 13:12:00,
2013-09-25 15:17:00,64.9,54.5,29.78,ENE,68,0.0,0.0,69,0.00,,,0.00,WUHU216HW,2013-09-25 13:17:00,
2013-09-25 15:22:00,64.7,54.3,29.77,ESE,113,2.4,2.4,69,0.00,,,0.00,WUHU216HW,2013-09-25 13:22:00,
2013-09-25 15:27:00,64.9,54.9,29.77,SE,135,0.8,2.4,70,0.00,,,0.00,WUHU216HW,2013-09-25 13:27:00,
2013-09-25 15:32:00,64.9,54.9,29.77,SSE,158,1.7,2.4,70,0.00,,,0.00,WUHU216HW,2013-09-25 13:32:00,
2013-09-25 15:37:00,64.9,54.9,29.77,SE,135,0.0,2.9,70,0.00,,,0.00,WUHU216HW,2013-09-25 13:37:00,
2013-09-25 15:42:00,65.1,54.7,29.77,SSE,158,0.0,2.9,69,0.00,,,0.00,WUHU216HW,2013-09-25 13:42:00,
2013-09-25 15:47:00,64.9,54.1,29.77,NNW,338,0.0,1.3,68,0.00,,,0.00,WUHU216HW,2013-09-25 13:47:00,
2013-09-25 15:52:00,64.7,53.9,29.77,East,90,2.9,2.9,68,0.00,,,0.00,WUHU216HW,2013-09-25 13:52:00,
2013-09-25 15:57:00,64.9,54.1,29.76,NE,45,2.6,2.9,68,0.00,,,0.00,WUHU216HW,2013-09-25 13:57:00,
2013-09-25 16:02:00,65.1,54.7,29.76,ESE,113,0.0,2.6,69,0.00,,,0.00,WUHU216HW,2013-09-25 14:02:00,
2013-09-25 16:07:00,65.1,54.7,29.76,ENE,68,0.0,2.0,69,0.00,,,0.00,WUHU216HW,2013-09-25 14:07:00,
2013-09-25 16:12:00,64.9,54.1,29.76,NE,45,0.0,2.0,68,0.00,,,0.00,WUHU216HW,2013-09-25 14:12:00,
2013-09-25 16:17:00,65.1,54.2,29.76,NE,45,0.0,0.6,68,0.00,,,0.00,WUHU216HW,2013-09-25 14:17:00,
2013-09-25 16:22:00,64.9,53.6,29.76,NE,45,0.0,0.6,67,0.00,,,0.00,WUHU216HW,2013-09-25 14:22:00,
2013-09-25 16:27:00,65.1,54.2,29.76,NE,45,0.0,1.1,68,0.00,,,0.00,WUHU216HW,2013-09-25 14:27:00,
2013-09-25 16:32:00,65.1,53.8,29.76,NNE,23,0.0,1.1,67,0.00,,,0.00,WUHU216HW,2013-09-25 14:32:00,
2013-09-25 16:37:00,64.9,54.1,29.76,ESE,113,1.7,1.7,68,0.00,,,0.00,WUHU216HW,2013-09-25 14:37:00,
2013-09-25 16:42:00,64.9,54.5,29.75,East,90,0.0,1.7,69,0.00,,,0.00,WUHU216HW,2013-09-25 14:42:00,
2013-09-25 16:47:00,64.9,54.5,29.76,NE,45,0.0,0.0,69,0.00,,,0.00,WUHU216HW,2013-09-25 14:47:00,
2013-09-25 16:52:00,64.9,54.5,29.75,NE,45,0.0,0.0,69,0.00,,,0.00,WUHU216HW,2013-09-25 14:52:00,
2013-09-25 16:57:00,64.5,53.7,29.75,NNW,338,0.0,0.0,68,0.00,,,0.00,WUHU216HW,2013-09-25 14:57:00,
2013-09-25 17:02:00,64.2,54.3,29.75,North,0,0.0,0.0,70,0.00,,,0.00,WUHU216HW,2013-09-25 15:02:00,
2013-09-25 17:07:00,64.2,54.3,29.75,NE,45,0.0,0.0,70,0.00,,,0.00,WUHU216HW,2013-09-25 15:07:00,
2013-09-25 17:12:00,64.2,54.3,29.75,NNE,23,0.0,0.0,70,0.00,,,0.00,WUHU216HW,2013-09-25 15:12:00,
2013-09-25 17:17:00,64.2,54.6,29.75,NNE,23,0.0,0.0,71,0.00,,,0.00,WUHU216HW,2013-09-25 15:17:00,
2013-09-25 17:22:00,64.2,54.3,29.75,NNW,338,0.0,0.0,70,0.00,,,0.00,WUHU216HW,2013-09-25 15:22:00,
2013-09-25 17:27:00,64.2,54.3,29.75,ENE,68,0.0,0.0,70,0.00,,,0.00,WUHU216HW,2013-09-25 15:27:00,
2013-09-25 17:32:00,64.2,54.6,29.75,NE,45,0.0,0.0,71,0.00,,,0.00,WUHU216HW,2013-09-25 15:32:00,
2013-09-25 17:37:00,64.2,54.6,29.75,NE,45,0.0,0.0,71,0.00,,,0.00,WUHU216HW,2013-09-25 15:37:00,
2013-09-25 17:42:00,64.0,54.5,29.75,NE,45,0.0,0.0,71,0.00,,,0.00,WUHU216HW,2013-09-25 15:42:00,
2013-09-25 17:47:00,63.6,54.1,29.75,NNE,23,0.0,0.0,71,0.00,,,0.00,WUHU216HW,2013-09-25 15:47:00,
2013-09-25 17:52:00,63.3,54.1,29.75,NNW,338,0.0,0.0,72,0.00,,,0.00,WUHU216HW,2013-09-25 15:52:00,
2013-09-25 17:57:00,63.1,53.9,29.75,NNW,338,0.0,0.0,72,0.00,,,0.00,WUHU216HW,2013-09-25 15:57:00,
2013-09-25 18:02:00,62.6,54.1,29.75,NW,315,0.0,0.0,74,0.00,,,0.00,WUHU216HW,2013-09-25 16:02:00,
2013-09-25 18:07:00,61.8,53.4,29.74,WNW,293,0.0,0.0,74,0.00,,,0.00,WUHU216HW,2013-09-25 16:07:00,
2013-09-25 18:12:00,61.1,52.8,29.75,WNW,293,0.0,0.0,74,0.00,,,0.00,WUHU216HW,2013-09-25 16:12:00,
2013-09-25 18:17:00,60.6,52.7,29.75,WNW,293,0.0,0.0,75,0.00,,,0.00,WUHU216HW,2013-09-25 16:17:00,
2013-09-25 18:22:00,59.9,52.3,29.74,NW,315,0.0,0.0,76,0.00,,,0.00,WUHU216HW,2013-09-25 16:22:00,
2013-09-25 18:27:00,59.3,51.8,29.74,WNW,293,0.0,0.0,76,0.00,,,0.00,WUHU216HW,2013-09-25 16:27:00,
2013-09-25 18:32:00,58.4,51.2,29.74,NW,315,0.0,0.0,77,0.00,,,0.00,WUHU216HW,2013-09-25 16:32:00,
2013-09-25 18:37:00,57.9,51.0,29.74,NW,315,0.0,0.0,78,0.00,,,0.00,WUHU216HW,2013-09-25 16:37:00,
2013-09-25 18:42:00,57.3,50.9,29.74,WNW,293,0.0,0.0,79,0.00,,,0.00,WUHU216HW,2013-09-25 16:42:00,
2013-09-25 18:47:00,56.8,50.5,29.74,West,270,0.0,0.0,79,0.00,,,0.00,WUHU216HW,2013-09-25 16:47:00,
2013-09-25 18:52:00,56.4,50.3,29.74,NW,315,0.0,0.0,80,0.00,,,0.00,WUHU216HW,2013-09-25 16:52:00,
2013-09-25 18:57:00,56.1,50.0,29.74,NW,315,0.0,0.0,80,0.00,,,0.00,WUHU216HW,2013-09-25 16:57:00,
2013-09-25 19:02:00,55.7,49.9,29.74,NW,315,0.0,0.0,81,0.00,,,0.00,WUHU216HW,2013-09-25 17:02:00,
2013-09-25 19:07:00,55.2,49.4,29.74,NW,315,0.0,0.0,81,0.00,,,0.00,WUHU216HW,2013-09-25 17:07:00,
2013-09-25 19:12:00,55.0,49.5,29.75,NW,315,0.0,0.0,82,0.00,,,0.00,WUHU216HW,2013-09-25 17:12:00,
2013-09-25 19:17:00,54.5,49.1,29.74,North,0,0.0,0.0,82,0.00,,,0.00,WUHU216HW,2013-09-25 17:17:00,
2013-09-25 19:22:00,54.1,49.0,29.74,WNW,293,0.0,0.0,83,0.00,,,0.00,WUHU216HW,2013-09-25 17:22:00,
2013-09-25 19:27:00,53.9,48.9,29.74,NW,315,0.0,0.0,83,0.00,,,0.00,WUHU216HW,2013-09-25 17:27:00,
2013-09-25 19:32:00,53.9,49.2,29.74,North,0,0.0,0.0,84,0.00,,,0.00,WUHU216HW,2013-09-25 17:32:00,
2013-09-25 19:37:00,53.9,49.2,29.74,NW,315,0.0,0.0,84,0.00,,,0.00,WUHU216HW,2013-09-25 17:37:00,
2013-09-25 19:42:00,53.9,49.2,29.74,NNW,338,0.0,0.0,84,0.00,,,0.00,WUHU216HW,2013-09-25 17:42:00,
2013-09-25 19:47:00,53.7,49.0,29.74,WNW,293,0.0,0.0,84,0.00,,,0.00,WUHU216HW,2013-09-25 17:47:00,
2013-09-25 19:52:00,53.6,48.8,29.75,North,0,0.0,0.0,84,0.00,,,0.00,WUHU216HW,2013-09-25 17:52:00,
2013-09-25 19:57:00,53.4,49.0,29.75,NNW,338,0.0,0.0,85,0.00,,,0.00,WUHU216HW,2013-09-25 17:57:00,
2013-09-25 20:02:00,53.2,48.8,29.75,NW,315,0.0,0.0,85,0.00,,,0.00,WUHU216HW,2013-09-25 18:02:00,
2013-09-25 20:07:00,52.8,48.4,29.76,NW,315,0.0,0.0,85,0.00,,,0.00,WUHU216HW,2013-09-25 18:07:00,
2013-09-25 20:12:00,52.7,48.2,29.77,NNW,338,0.0,0.0,85,0.00,,,0.00,WUHU216HW,2013-09-25 18:12:00,
2013-09-25 20:17:00,52.3,47.9,29.78,WNW,293,0.0,0.0,85,0.00,,,0.00,WUHU216HW,2013-09-25 18:17:00,
2013-09-25 20:22:00,52.3,48.2,29.78,NNW,338,0.0,3.1,86,0.00,,,0.00,WUHU216HW,2013-09-25 18:22:00,
2013-09-25 20:27:00,52.3,48.2,29.78,NNW,338,0.0,3.1,86,0.00,,,0.00,WUHU216HW,2013-09-25 18:27:00,
2013-09-25 20:32:00,52.3,48.2,29.78,WNW,293,0.0,0.0,86,0.00,,,0.00,WUHU216HW,2013-09-25 18:32:00,
2013-09-25 20:37:00,52.1,48.0,29.79,NW,315,0.0,0.0,86,0.00,,,0.00,WUHU216HW,2013-09-25 18:37:00,
2013-09-25 20:42:00,51.9,47.8,29.79,NNW,338,0.0,0.0,86,0.00,,,0.00,WUHU216HW,2013-09-25 18:42:00,
2013-09-25 20:47:00,51.9,47.8,29.79,North,0,0.0,0.0,86,0.00,,,0.00,WUHU216HW,2013-09-25 18:47:00,
2013-09-25 20:52:00,51.8,47.6,29.80,North,0,0.0,0.0,86,0.00,,,0.00,WUHU216HW,2013-09-25 18:52:00,
2013-09-25 20:57:00,51.6,47.5,29.79,NNW,338,0.0,0.0,86,0.00,,,0.00,WUHU216HW,2013-09-25 18:57:00,
2013-09-25 21:02:00,51.6,47.5,29.80,NW,315,0.0,0.0,86,0.00,,,0.00,WUHU216HW,2013-09-25 19:02:00,
2013-09-25 21:07:00,51.4,47.3,29.80,NNW,338,0.0,0.0,86,0.00,,,0.00,WUHU216HW,2013-09-25 19:07:00,
2013-09-25 21:12:00,51.4,47.3,29.80,WNW,293,0.0,0.0,86,0.00,,,0.00,WUHU216HW,2013-09-25 19:12:00,
2013-09-25 21:17:00,51.6,47.8,29.80,NNW,338,0.0,0.0,87,0.00,,,0.00,WUHU216HW,2013-09-25 19:17:00,
2013-09-25 21:22:00,51.6,47.8,29.80,NW,315,0.0,0.0,87,0.00,,,0.00,WUHU216HW,2013-09-25 19:22:00,
2013-09-25 21:27:00,51.9,48.1,29.80,NNW,338,0.0,0.0,87,0.00,,,0.00,WUHU216HW,2013-09-25 19:27:00,
2013-09-25 21:32:00,51.9,48.1,29.80,NW,315,0.0,0.0,87,0.00,,,0.00,WUHU216HW,2013-09-25 19:32:00,
2013-09-25 21:37:00,51.9,48.1,29.81,ESE,113,0.0,0.0,87,0.00,,,0.00,WUHU216HW,2013-09-25 19:37:00,
2013-09-25 21:42:00,51.8,48.0,29.80,SSE,158,0.0,0.0,87,0.00,,,0.00,WUHU216HW,2013-09-25 19:42:00,
2013-09-25 21:47:00,51.6,47.8,29.80,WSW,248,0.0,0.0,87,0.00,,,0.00,WUHU216HW,2013-09-25 19:47:00,
2013-09-25 21:52:00,51.2,47.4,29.80,NNW,338,0.0,0.0,87,0.00,,,0.00,WUHU216HW,2013-09-25 19:52:00,
2013-09-25 21:57:00,50.9,47.1,29.80,NW,315,0.0,0.0,87,0.00,,,0.00,WUHU216HW,2013-09-25 19:57:00,
2013-09-25 22:02:00,50.7,46.9,29.81,WNW,293,0.0,0.0,87,0.00,,,0.00,WUHU216HW,2013-09-25 20:02:00,
2013-09-25 22:07:00,50.5,46.7,29.81,WNW,293,0.0,0.0,87,0.00,,,0.00,WUHU216HW,2013-09-25 20:07:00,
2013-09-25 22:12:00,50.5,46.7,29.81,WNW,293,0.0,0.0,87,0.00,,,0.00,WUHU216HW,2013-09-25 20:12:00,
2013-09-25 22:17:00,50.5,46.7,29.80,WNW,293,0.0,0.0,87,0.00,,,0.00,WUHU216HW,2013-09-25 20:17:00,
2013-09-25 22:22:00,50.3,46.5,29.81,NW,315,0.0,0.0,87,0.00,,,0.00,WUHU216HW,2013-09-25 20:22:00,
2013-09-25 22:27:00,50.3,46.5,29.81,North,0,0.0,0.0,87,0.00,,,0.00,WUHU216HW,2013-09-25 20:27:00,
2013-09-25 22:32:00,50.1,46.3,29.81,NNW,338,0.0,0.0,87,0.00,,,0.00,WUHU216HW,2013-09-25 20:32:00,
2013-09-25 22:37:00,50.1,46.3,29.81,North,0,0.0,0.0,87,0.00,,,0.00,WUHU216HW,2013-09-25 20:37:00,
2013-09-25 22:42:00,50.1,46.3,29.81,West,270,0.0,0.0,87,0.00,,,0.00,WUHU216HW,2013-09-25 20:42:00,
2013-09-25 22:47:00,50.1,46.3,29.81,NW,315,0.0,0.0,87,0.00,,,0.00,WUHU216HW,2013-09-25 20:47:00,
2013-09-25 22:52:00,50.1,46.3,29.81,West,270,0.0,0.0,87,0.00,,,0.00,WUHU216HW,2013-09-25 20:52:00,
2013-09-25 22:57:00,50.0,46.2,29.81,West,270,0.0,0.0,87,0.00,,,0.00,WUHU216HW,2013-09-25 20:57:00,
2013-09-25 23:02:00,49.8,46.0,29.81,WNW,293,0.0,0.0,87,0.00,,,0.00,WUHU216HW,2013-09-25 21:02:00,
2013-09-25 23:07:00,49.6,45.8,29.80,NNW,338,0.0,0.0,87,0.00,,,0.00,WUHU216HW,2013-09-25 21:07:00,
2013-09-25 23:12:00,49.4,45.6,29.80,NW,315,0.0,0.0,87,0.00,,,0.00,WUHU216HW,2013-09-25 21:12:00,
2013-09-25 23:17:00,49.2,45.5,29.81,West,270,0.0,0.0,87,0.00,,,0.00,WUHU216HW,2013-09-25 21:17:00,
2013-09-25 23:22:00,49.1,45.3,29.81,WNW,293,0.0,0.0,87,0.00,,,0.00,WUHU216HW,2013-09-25 21:22:00,